createdAt,value
2017-08-17T00:01:07.683Z,99822.62
2017-08-17T00:03:35.283Z,99819.11
2017-08-17T00:06:02.923Z,99822.50
2017-08-17T00:08:30.557Z,99820.14
2017-08-17T00:10:58.248Z,99822.60
2017-08-17T00:13:25.963Z,99816.23
2017-08-17T00:15:53.957Z,99814.91
2017-08-17T00:18:21.643Z,99819.17
2017-08-17T00:20:49.369Z,99816.08
2017-08-17T00:23:17.360Z,99818.92
2017-08-17T00:25:45.128Z,99815.95
2017-08-17T00:28:13.106Z,99817.44
2017-08-17T00:30:41.135Z,99818.37
2017-08-17T00:33:08.848Z,99816.89
2017-08-17T00:35:36.577Z,99812.30
2017-08-17T00:38:04.535Z,99810.50
2017-08-17T00:40:32.355Z,99809.54
2017-08-17T00:43:00.311Z,99807.11
2017-08-17T00:45:28.338Z,99812.00
2017-08-17T00:47:56.105Z,99811.71
2017-08-17T00:50:24.096Z,99822.41
2017-08-17T00:52:51.984Z,99820.23
2017-08-17T00:55:19.828Z,99818.08
2017-08-17T00:57:47.697Z,99820.95
2017-08-17T01:00:15.585Z,99822.31
2017-08-17T01:02:43.432Z,99821.09
2017-08-17T01:05:11.296Z,99818.37
2017-08-17T01:07:39.042Z,99817.13
2017-08-17T01:10:07.007Z,99816.56
2017-08-17T01:12:34.828Z,99824.44
2017-08-17T01:15:02.782Z,99824.02
2017-08-17T01:17:30.631Z,99823.16
2017-08-17T01:19:58.318Z,99834.65
2017-08-17T01:22:26.178Z,99828.27
2017-08-17T01:24:53.843Z,99831.91
2017-08-17T01:27:21.676Z,99839.91
2017-08-17T01:29:49.767Z,99833.34
2017-08-17T01:32:17.651Z,99837.27
2017-08-17T01:34:45.500Z,99839.27
2017-08-17T01:37:13.395Z,99840.74
2017-08-17T01:39:41.034Z,99844.85
2017-08-17T01:42:08.877Z,99850.15
2017-08-17T01:44:36.647Z,99846.70
2017-08-17T01:47:14.746Z,99847.72
2017-08-17T01:49:42.780Z,99843.98
2017-08-17T01:52:10.721Z,99851.66
2017-08-17T01:54:38.693Z,99837.80
2017-08-17T01:57:06.607Z,99838.33
2017-08-17T01:59:34.573Z,99840.20
2017-08-17T02:02:02.497Z,99842.02
2017-08-17T02:04:30.364Z,99844.39
2017-08-17T02:06:58.025Z,99842.77
2017-08-17T02:09:25.741Z,99850.24
2017-08-17T02:11:53.752Z,99850.67
2017-08-17T02:14:21.450Z,99853.97
2017-08-17T02:16:49.261Z,99855.01
2017-08-17T02:19:18.179Z,99856.60
2017-08-17T02:21:45.900Z,99854.88
2017-08-17T02:24:13.618Z,99863.58
2017-08-17T02:26:41.574Z,99866.84
2017-08-17T02:29:09.425Z,99871.69
2017-08-17T02:31:37.098Z,99877.70
2017-08-17T02:34:04.972Z,99873.53
2017-08-17T02:36:32.632Z,99875.81
2017-08-17T02:39:00.501Z,99882.31
2017-08-17T02:41:28.380Z,99885.71
2017-08-17T02:43:56.240Z,99881.17
2017-08-17T02:46:24.089Z,99886.87
2017-08-17T02:48:52.136Z,99892.91
2017-08-17T02:51:20.037Z,99897.56
2017-08-17T02:53:48.096Z,99892.20
2017-08-17T02:56:16.161Z,99897.73
2017-08-17T02:58:43.844Z,99900.84
2017-08-17T03:01:11.548Z,99899.56
2017-08-17T03:03:39.536Z,99906.09
2017-08-17T03:06:07.446Z,99911.11
2017-08-17T03:08:35.469Z,99908.65
2017-08-17T03:11:03.287Z,99912.45
2017-08-17T03:13:31.158Z,99905.56
2017-08-17T03:15:59.296Z,99907.94
2017-08-17T03:18:27.361Z,99906.68
2017-08-17T03:20:55.292Z,99909.45
2017-08-17T03:23:23.291Z,99906.06
2017-08-17T03:25:51.364Z,99900.95
2017-08-17T03:28:19.271Z,99905.80
2017-08-17T03:30:47.001Z,99898.27
2017-08-17T03:33:14.990Z,99900.98
2017-08-17T03:35:42.610Z,99899.05
2017-08-17T03:38:10.499Z,99895.28
2017-08-17T03:40:38.245Z,99896.95
2017-08-17T03:43:06.085Z,99893.55
2017-08-17T03:45:33.778Z,99900.30
2017-08-17T03:48:01.792Z,99900.09
2017-08-17T03:50:29.458Z,99895.53
2017-08-17T03:52:57.176Z,99905.77
2017-08-17T03:55:25.103Z,99910.63
2017-08-17T03:57:52.853Z,99918.14
2017-08-17T04:00:20.579Z,99917.19
2017-08-17T04:02:48.585Z,99912.34
2017-08-17T04:05:16.253Z,99917.08
2017-08-17T04:07:43.907Z,99920.27
2017-08-17T04:10:11.569Z,99913.95
2017-08-17T04:12:39.290Z,99916.82
2017-08-17T04:15:07.107Z,99920.88
2017-08-17T04:17:34.989Z,99914.86
2017-08-17T04:20:02.743Z,99924.23
2017-08-17T04:22:30.705Z,99922.59
2017-08-17T04:24:58.722Z,99920.77
2017-08-17T04:27:26.432Z,99925.88
2017-08-17T04:29:54.279Z,99923.14
2017-08-17T04:32:22.172Z,99922.64
2017-08-17T04:34:49.892Z,99914.59
2017-08-17T04:37:17.881Z,99919.41
2017-08-17T04:39:45.773Z,99917.50
2017-08-17T04:42:13.615Z,99916.64
2017-08-17T04:44:41.508Z,99917.54
2017-08-17T04:47:09.526Z,99912.50
2017-08-17T04:49:37.346Z,99918.56
2017-08-17T04:52:11.864Z,99918.25
2017-08-17T04:54:39.523Z,99916.67
2017-08-17T04:57:29.718Z,99925.22
2017-08-17T04:59:57.560Z,99923.69
2017-08-17T05:02:25.454Z,99933.28
2017-08-17T05:04:53.524Z,99927.39
2017-08-17T05:07:21.361Z,99926.64
2017-08-17T05:09:49.259Z,99933.53
2017-08-17T05:12:17.196Z,99933.72
2017-08-17T05:14:45.115Z,99932.87
2017-08-17T05:17:13.063Z,99936.23
2017-08-17T05:19:41.135Z,99932.47
2017-08-17T05:22:08.795Z,99934.27
2017-08-17T05:24:36.630Z,99928.09
2017-08-17T05:27:04.598Z,99929.73
2017-08-17T05:29:32.629Z,99932.00
2017-08-17T05:32:00.264Z,99925.80
2017-08-17T05:34:28.299Z,99923.64
2017-08-17T05:36:56.003Z,99929.80
2017-08-17T05:39:23.709Z,99921.77
2017-08-17T05:41:51.732Z,99928.19
2017-08-17T05:44:19.570Z,99921.58
2017-08-17T05:46:47.469Z,99919.49
2017-08-17T05:49:15.333Z,99916.67
2017-08-17T05:51:43.069Z,99913.34
2017-08-17T05:54:11.038Z,99904.87
2017-08-17T05:56:38.722Z,99896.41
2017-08-17T05:59:06.700Z,99901.20
2017-08-17T06:01:34.562Z,99908.19
2017-08-17T06:04:02.382Z,99916.55
2017-08-17T06:06:30.349Z,99904.61
2017-08-17T06:08:58.171Z,99904.67
2017-08-17T06:11:25.986Z,99902.73
2017-08-17T06:13:53.608Z,99903.58
2017-08-17T06:16:21.346Z,99898.41
2017-08-17T06:18:49.109Z,99900.23
2017-08-17T06:21:16.832Z,99904.42
2017-08-17T06:23:44.721Z,99896.33
2017-08-17T06:26:12.401Z,99892.95
2017-08-17T06:28:40.024Z,99898.76
2017-08-17T06:31:07.737Z,99890.48
2017-08-17T06:33:35.416Z,99894.63
2017-08-17T06:36:03.017Z,99899.38
2017-08-17T06:38:30.674Z,99894.70
2017-08-17T06:40:58.420Z,99891.71
2017-08-17T06:43:26.049Z,99889.77
2017-08-17T06:45:53.653Z,99897.48
2017-08-17T06:48:21.310Z,99897.61
2017-08-17T06:50:48.935Z,99891.91
2017-08-17T06:53:16.595Z,99892.23
2017-08-17T06:55:44.276Z,99892.30
2017-08-17T06:58:11.906Z,99891.70
2017-08-17T07:00:39.566Z,99891.08
2017-08-17T07:03:07.232Z,99890.80
2017-08-17T07:05:34.864Z,99888.55
2017-08-17T07:08:02.480Z,99887.21
2017-08-17T07:10:30.159Z,99889.83
2017-08-17T07:12:57.790Z,99890.27
2017-08-17T07:15:25.372Z,99895.31
2017-08-17T07:17:53.607Z,99900.53
2017-08-17T07:20:21.206Z,99892.64
2017-08-17T07:22:49.038Z,99897.82
2017-08-17T07:25:17.021Z,99889.06
2017-08-17T07:27:44.747Z,99883.28
2017-08-17T07:30:12.761Z,99890.44
2017-08-17T07:32:40.558Z,99897.42
2017-08-17T07:35:08.491Z,99896.08
2017-08-17T07:37:36.315Z,99890.70
2017-08-17T07:40:04.000Z,99896.47
2017-08-17T07:42:31.728Z,99887.28
2017-08-17T07:44:59.542Z,99889.70
2017-08-17T07:47:27.208Z,99889.72
2017-08-17T07:49:54.929Z,99884.29
2017-08-17T07:52:22.943Z,99882.98
2017-08-17T07:54:50.807Z,99885.30
2017-08-17T07:57:18.534Z,99888.39
2017-08-17T07:59:46.522Z,99883.39
2017-08-17T08:02:14.518Z,99889.14
2017-08-17T08:04:42.231Z,99883.52
2017-08-17T08:07:10.145Z,99886.70
2017-08-17T08:09:38.216Z,99884.84
2017-08-17T08:12:05.931Z,99885.52
2017-08-17T08:14:33.900Z,99884.10
2017-08-17T08:17:01.969Z,99887.17
2017-08-17T08:19:29.684Z,99881.74
2017-08-17T08:21:57.404Z,99889.63
2017-08-17T08:24:25.272Z,99890.89
2017-08-17T08:26:53.285Z,99886.09
2017-08-17T08:29:21.130Z,99882.53
2017-08-17T08:31:49.020Z,99888.89
2017-08-17T08:34:17.089Z,99880.99
2017-08-17T08:36:44.937Z,99885.89
2017-08-17T08:39:12.618Z,99872.05
2017-08-17T08:41:40.282Z,99877.44
2017-08-17T08:44:07.943Z,99870.84
2017-08-17T08:46:35.818Z,99863.11
2017-08-17T08:49:03.826Z,99871.80
2017-08-17T08:51:31.735Z,99870.69
2017-08-17T08:53:59.780Z,99869.91
2017-08-17T08:56:27.489Z,99873.30
2017-08-17T08:58:55.319Z,99864.75
2017-08-17T09:01:23.060Z,99856.01
2017-08-17T09:03:50.977Z,99857.69
2017-08-17T09:06:18.950Z,99839.48
2017-08-17T09:08:47.024Z,99832.63
2017-08-17T09:11:14.878Z,99841.44
2017-08-17T09:13:42.596Z,99844.97
2017-08-17T09:16:10.487Z,99836.50
2017-08-17T09:18:38.476Z,99847.69
2017-08-17T09:21:06.197Z,99835.28
2017-08-17T09:23:34.225Z,99833.41
2017-08-17T09:26:02.055Z,99833.09
2017-08-17T09:28:29.741Z,99833.23
2017-08-17T09:30:57.410Z,99835.77
2017-08-17T09:33:25.257Z,99839.08
2017-08-17T09:35:53.000Z,99831.48
2017-08-17T09:38:21.016Z,99831.70
2017-08-17T09:40:48.737Z,99828.30
2017-08-17T09:43:16.701Z,99827.89
2017-08-17T09:45:44.521Z,99822.88
2017-08-17T09:48:12.484Z,99829.28
2017-08-17T09:50:40.205Z,99825.77
2017-08-17T09:53:08.422Z,99829.84
2017-08-17T09:55:36.262Z,99815.91
2017-08-17T09:58:04.007Z,99824.49
2017-08-17T10:00:31.974Z,99825.27
2017-08-17T10:02:59.685Z,99820.08
2017-08-17T10:05:27.733Z,99815.09
2017-08-17T10:07:55.361Z,99815.75
2017-08-17T10:10:22.915Z,99813.58
2017-08-17T10:12:50.482Z,99809.74
2017-08-17T10:15:18.193Z,99805.19
2017-08-17T10:17:45.770Z,99810.28
2017-08-17T10:20:13.364Z,99801.32
2017-08-17T10:22:40.966Z,99801.23
2017-08-17T10:25:08.531Z,99791.55
2017-08-17T10:27:36.094Z,99792.33
2017-08-17T10:30:03.738Z,99787.70
2017-08-17T10:32:31.418Z,99787.16
2017-08-17T10:34:58.980Z,99786.71
2017-08-17T10:37:26.596Z,99787.78
2017-08-17T10:39:54.163Z,99791.30
2017-08-17T10:42:21.825Z,99776.31
2017-08-17T10:44:49.412Z,99779.69
2017-08-17T10:47:17.024Z,99772.73
2017-08-17T10:49:44.586Z,99762.34
2017-08-17T10:52:12.194Z,99770.64
2017-08-17T10:54:39.747Z,99768.68
2017-08-17T10:57:07.311Z,99765.00
2017-08-17T10:59:34.915Z,99765.41
2017-08-17T11:02:02.483Z,99756.58
2017-08-17T11:04:30.047Z,99757.79
2017-08-17T11:06:57.671Z,99755.36
2017-08-17T11:09:25.244Z,99755.56
2017-08-17T11:11:52.820Z,99761.44
2017-08-17T11:14:20.452Z,99757.31
2017-08-17T11:16:48.006Z,99762.63
2017-08-17T11:19:15.579Z,99754.33
2017-08-17T11:21:43.199Z,99744.02
2017-08-17T11:24:10.748Z,99736.64
2017-08-17T11:26:38.361Z,99741.54
2017-08-17T11:29:05.975Z,99736.63
2017-08-17T11:31:33.540Z,99748.76
2017-08-17T11:34:01.112Z,99735.48
2017-08-17T11:36:28.721Z,99735.06
2017-08-17T11:38:56.277Z,99734.64
2017-08-17T11:41:23.937Z,99729.72
2017-08-17T11:43:51.551Z,99716.45
2017-08-17T11:46:19.113Z,99713.83
2017-08-17T11:48:46.145Z,99722.17
2017-08-17T11:51:13.203Z,99721.67
2017-08-17T11:53:40.815Z,99722.20
2017-08-17T11:56:08.384Z,99713.44
2017-08-17T11:58:36.024Z,99717.22
2017-08-17T12:01:03.598Z,99709.85
2017-08-17T12:03:31.171Z,99711.13
2017-08-17T12:05:58.815Z,99709.66
2017-08-17T12:08:26.390Z,99706.20
2017-08-17T12:10:53.937Z,99704.33
2017-08-17T12:13:21.542Z,99690.08
2017-08-17T12:15:49.106Z,99694.05
2017-08-17T12:18:16.658Z,99695.92
2017-08-17T12:20:44.270Z,99688.05
2017-08-17T12:23:11.827Z,99682.68
2017-08-17T12:25:39.386Z,99680.80
2017-08-17T12:28:07.057Z,99679.19
2017-08-17T12:30:34.624Z,99677.44
2017-08-17T12:33:02.223Z,99679.47
2017-08-17T12:35:29.890Z,99672.49
2017-08-17T12:37:57.439Z,99670.08
2017-08-17T12:40:25.024Z,99673.68
2017-08-17T12:42:52.648Z,99671.80
2017-08-17T12:45:20.222Z,99660.55
2017-08-17T12:47:47.782Z,99669.14
2017-08-17T12:50:15.377Z,99670.77
2017-08-17T12:52:42.910Z,99677.01
2017-08-17T12:55:10.483Z,99670.52
2017-08-17T12:57:38.102Z,99671.72
2017-08-17T13:00:05.651Z,99668.49
2017-08-17T13:02:33.197Z,99654.95
2017-08-17T13:05:00.821Z,99669.73
2017-08-17T13:07:28.425Z,99671.13
2017-08-17T13:09:55.970Z,99663.88
2017-08-17T13:12:23.574Z,99665.87
2017-08-17T13:14:51.143Z,99670.53
2017-08-17T13:17:18.699Z,99661.98
2017-08-17T13:19:46.340Z,99662.84
2017-08-17T13:22:13.894Z,99658.85
2017-08-17T13:24:41.459Z,99660.81
2017-08-17T13:27:09.286Z,99657.83
2017-08-17T13:29:36.824Z,99655.38
2017-08-17T13:32:04.364Z,99652.33
2017-08-17T13:34:31.980Z,99660.97
2017-08-17T13:36:59.537Z,99665.13
2017-08-17T13:39:27.094Z,99662.30
2017-08-17T13:41:54.709Z,99661.57
2017-08-17T13:44:22.280Z,99655.64
2017-08-17T13:46:50.016Z,99648.16
2017-08-17T13:49:17.644Z,99652.07
2017-08-17T13:51:45.214Z,99661.55
2017-08-17T13:54:12.784Z,99649.34
2017-08-17T13:56:40.393Z,99646.14
2017-08-17T13:59:07.945Z,99651.16
2017-08-17T14:01:35.507Z,99653.14
2017-08-17T14:04:03.260Z,99661.47
2017-08-17T14:06:30.805Z,99653.85
2017-08-17T14:08:58.374Z,99650.94
2017-08-17T14:11:25.986Z,99647.67
2017-08-17T14:13:53.548Z,99649.86
2017-08-17T14:16:21.100Z,99650.66
2017-08-17T14:18:48.721Z,99641.47
2017-08-17T14:21:16.304Z,99646.05
2017-08-17T14:23:43.866Z,99651.33
2017-08-17T14:26:11.473Z,99656.95
2017-08-17T14:28:39.034Z,99654.94
2017-08-17T14:31:06.594Z,99654.19
2017-08-17T14:33:34.201Z,99655.39
2017-08-17T14:36:01.753Z,99648.09
2017-08-17T14:38:29.310Z,99647.20
2017-08-17T14:40:56.938Z,99646.30
2017-08-17T14:43:24.508Z,99653.01
2017-08-17T14:45:52.063Z,99647.42
2017-08-17T14:48:19.657Z,99641.28
2017-08-17T14:50:47.219Z,99639.66
2017-08-17T14:53:14.776Z,99639.72
2017-08-17T14:55:42.391Z,99640.88
2017-08-17T14:58:09.948Z,99637.03
2017-08-17T15:00:37.519Z,99637.57
2017-08-17T15:03:05.139Z,99634.61
2017-08-17T15:05:32.713Z,99638.23
2017-08-17T15:08:00.411Z,99640.96
2017-08-17T15:10:28.081Z,99641.29
2017-08-17T15:12:55.652Z,99642.20
2017-08-17T15:15:23.237Z,99645.11
2017-08-17T15:17:50.849Z,99645.81
2017-08-17T15:20:18.383Z,99642.37
2017-08-17T15:22:45.936Z,99646.75
2017-08-17T15:25:13.559Z,99647.65
2017-08-17T15:27:41.117Z,99644.28
2017-08-17T15:30:08.731Z,99643.55
2017-08-17T15:32:36.369Z,99648.42
2017-08-17T15:35:04.033Z,99651.77
2017-08-17T15:37:31.595Z,99655.75
2017-08-17T15:39:59.222Z,99659.06
2017-08-17T15:42:26.812Z,99665.37
2017-08-17T15:44:54.362Z,99660.41
2017-08-17T15:47:21.970Z,99659.68
2017-08-17T15:49:49.520Z,99659.36
2017-08-17T15:52:17.078Z,99659.74
2017-08-17T15:54:44.706Z,99658.00
2017-08-17T15:57:12.457Z,99663.22
2017-08-17T15:59:40.079Z,99669.64
2017-08-17T16:02:07.797Z,99662.80
2017-08-17T16:04:35.419Z,99662.70
2017-08-17T16:07:03.038Z,99666.80
2017-08-17T16:09:30.707Z,99664.33
2017-08-17T16:11:58.328Z,99672.81
2017-08-17T16:14:25.920Z,99679.92
2017-08-17T16:16:53.569Z,99676.50
2017-08-17T16:19:21.168Z,99679.64
2017-08-17T16:21:48.782Z,99680.57
2017-08-17T16:24:16.449Z,99676.53
2017-08-17T16:26:44.043Z,99677.64
2017-08-17T16:29:11.655Z,99686.47
2017-08-17T16:31:39.332Z,99691.97
2017-08-17T16:34:06.957Z,99696.05
2017-08-17T16:36:34.590Z,99695.95
2017-08-17T16:39:02.247Z,99695.25
2017-08-17T16:41:29.897Z,99698.48
2017-08-17T16:43:57.503Z,99702.84
2017-08-17T16:46:25.172Z,99707.16
2017-08-17T16:48:52.791Z,99708.71
2017-08-17T16:51:20.397Z,99717.25
2017-08-17T16:53:48.059Z,99721.92
2017-08-17T16:56:15.671Z,99715.64
2017-08-17T16:58:43.258Z,99722.78
2017-08-17T17:01:10.935Z,99725.27
2017-08-17T17:03:38.595Z,99726.91
2017-08-17T17:06:06.889Z,99726.44
2017-08-17T17:08:34.930Z,99726.22
2017-08-17T17:11:02.680Z,99729.69
2017-08-17T17:13:30.333Z,99733.14
2017-08-17T17:15:58.039Z,99738.14
2017-08-17T17:18:25.711Z,99739.29
2017-08-17T17:20:53.347Z,99737.27
2017-08-17T17:23:21.025Z,99738.58
2017-08-17T17:25:48.637Z,99741.47
2017-08-17T17:28:16.259Z,99740.73
2017-08-17T17:30:43.923Z,99740.86
2017-08-17T17:33:11.527Z,99747.55
2017-08-17T17:35:39.111Z,99744.44
2017-08-17T17:38:06.735Z,99753.07
2017-08-17T17:40:34.348Z,99754.27
2017-08-17T17:43:01.968Z,99758.49
2017-08-17T17:45:29.756Z,99762.23
2017-08-17T17:47:57.379Z,99766.50
2017-08-17T17:50:25.000Z,99773.09
2017-08-17T17:52:52.665Z,99770.47
2017-08-17T17:55:20.275Z,99775.02
2017-08-17T17:57:47.908Z,99782.19
2017-08-17T18:00:15.632Z,99786.06
2017-08-17T18:02:43.251Z,99787.87
2017-08-17T18:05:10.862Z,99791.04
2017-08-17T18:07:38.521Z,99785.19
2017-08-17T18:10:06.148Z,99787.98
2017-08-17T18:12:33.753Z,99793.22
2017-08-17T18:15:01.406Z,99798.20
2017-08-17T18:17:29.347Z,99793.72
2017-08-17T18:19:56.979Z,99797.33
2017-08-17T18:22:24.914Z,99799.52
2017-08-17T18:24:52.550Z,99802.09
2017-08-17T18:27:20.335Z,99806.80
2017-08-17T18:29:48.021Z,99812.77
2017-08-17T18:32:15.640Z,99814.61
2017-08-17T18:34:43.341Z,99814.52
2017-08-17T18:37:11.114Z,99817.97
2017-08-17T18:39:38.754Z,99819.13
2017-08-17T18:42:06.596Z,99824.83
2017-08-17T18:44:34.721Z,99826.06
2017-08-17T18:47:02.564Z,99825.95
2017-08-17T18:49:30.454Z,99828.09
2017-08-17T18:51:58.205Z,99830.67
2017-08-17T18:54:25.978Z,99835.59
2017-08-17T18:56:53.699Z,99838.61
2017-08-17T18:59:21.433Z,99831.94
2017-08-17T19:01:49.208Z,99840.69
2017-08-17T19:04:16.845Z,99844.08
2017-08-17T19:06:44.520Z,99846.88
2017-08-17T19:09:12.206Z,99853.12
2017-08-17T19:11:39.869Z,99851.02
2017-08-17T19:14:07.525Z,99852.80
2017-08-17T19:16:35.211Z,99849.50
2017-08-17T19:19:02.837Z,99851.11
2017-08-17T19:21:30.606Z,99854.16
2017-08-17T19:23:58.203Z,99854.78
2017-08-17T19:26:25.838Z,99853.30
2017-08-17T19:28:53.588Z,99853.85
2017-08-17T19:31:21.250Z,99849.03
2017-08-17T19:33:48.864Z,99855.85
2017-08-17T19:36:16.546Z,99863.72
2017-08-17T19:38:44.173Z,99868.27
2017-08-17T19:41:11.804Z,99864.87
2017-08-17T19:43:39.501Z,99874.22
2017-08-17T19:46:07.150Z,99876.75
2017-08-17T19:48:34.976Z,99873.14
2017-08-17T19:51:02.780Z,99867.27
2017-08-17T19:53:30.376Z,99871.73
2017-08-17T19:55:57.990Z,99877.13
2017-08-17T19:58:25.681Z,99878.97
2017-08-17T20:00:53.308Z,99877.55
2017-08-17T20:03:20.944Z,99884.89
2017-08-17T20:05:48.647Z,99879.99
2017-08-17T20:08:16.249Z,99880.20
2017-08-17T20:10:43.841Z,99881.86
2017-08-17T20:13:11.485Z,99885.75
2017-08-17T20:15:39.104Z,99877.80
2017-08-17T20:18:07.033Z,99870.87
2017-08-17T20:20:34.710Z,99877.78
2017-08-17T20:23:02.388Z,99883.25
2017-08-17T20:25:30.022Z,99884.97
2017-08-17T20:27:57.703Z,99890.42
2017-08-17T20:30:25.359Z,99893.70
2017-08-17T20:32:52.983Z,99896.89
2017-08-17T20:35:20.637Z,99894.66
2017-08-17T20:37:48.251Z,99895.47
2017-08-17T20:40:15.860Z,99895.77
2017-08-17T20:42:43.572Z,99904.28
2017-08-17T20:45:11.196Z,99905.75
2017-08-17T20:47:38.807Z,99907.77
2017-08-17T20:50:06.469Z,99915.63
2017-08-17T20:52:34.140Z,99909.97
2017-08-17T20:55:01.761Z,99914.09
2017-08-17T20:57:29.422Z,99910.49
2017-08-17T20:59:57.036Z,99905.33
2017-08-17T21:02:24.648Z,99899.52
2017-08-17T21:04:52.384Z,99900.02
2017-08-17T21:07:19.991Z,99894.05
2017-08-17T21:09:47.607Z,99901.38
2017-08-17T21:12:15.291Z,99898.91
2017-08-17T21:14:42.907Z,99911.95
2017-08-17T21:17:10.539Z,99906.41
2017-08-17T21:19:38.213Z,99906.48
2017-08-17T21:22:05.832Z,99906.67
2017-08-17T21:24:33.434Z,99911.66
2017-08-17T21:27:01.112Z,99913.05
2017-08-17T21:29:28.734Z,99910.89
2017-08-17T21:31:56.341Z,99914.22
2017-08-17T21:34:24.049Z,99915.84
2017-08-17T21:36:51.658Z,99916.67
2017-08-17T21:39:19.269Z,99913.81
2017-08-17T21:41:46.941Z,99915.70
2017-08-17T21:44:14.542Z,99913.24
2017-08-17T21:46:42.186Z,99916.41
2017-08-17T21:49:09.852Z,99918.32
2017-08-17T21:51:37.476Z,99914.05
2017-08-17T21:54:05.078Z,99913.83
2017-08-17T21:56:32.749Z,99908.03
2017-08-17T21:59:00.368Z,99914.21
2017-08-17T22:01:27.972Z,99908.61
2017-08-17T22:03:55.644Z,99919.63
2017-08-17T22:06:23.294Z,99913.52
2017-08-17T22:08:50.904Z,99914.33
2017-08-17T22:11:18.644Z,99913.80
2017-08-17T22:13:46.253Z,99923.45
2017-08-17T22:16:13.858Z,99923.73
2017-08-17T22:18:41.529Z,99922.11
2017-08-17T22:21:09.148Z,99928.90
2017-08-17T22:23:36.764Z,99922.64
2017-08-17T22:26:04.426Z,99923.75
2017-08-17T22:28:32.033Z,99924.31
2017-08-17T22:30:59.647Z,99924.84
2017-08-17T22:33:27.310Z,99932.58
2017-08-17T22:35:54.927Z,99922.27
2017-08-17T22:38:22.534Z,99919.41
2017-08-17T22:40:50.212Z,99923.48
2017-08-17T22:43:17.821Z,99922.13
2017-08-17T22:45:45.434Z,99921.86
2017-08-17T22:48:13.104Z,99922.52
2017-08-17T22:50:40.701Z,99925.80
2017-08-17T22:53:08.310Z,99924.30
2017-08-17T22:55:35.982Z,99930.28
2017-08-17T22:58:03.594Z,99927.31
2017-08-17T23:00:31.215Z,99925.92
2017-08-17T23:02:58.878Z,99924.19
2017-08-17T23:05:26.501Z,99927.83
2017-08-17T23:07:54.145Z,99927.59
2017-08-17T23:10:21.820Z,99922.14
2017-08-17T23:12:49.457Z,99927.52
2017-08-17T23:15:17.056Z,99925.89
2017-08-17T23:17:44.752Z,99925.06
2017-08-17T23:20:12.363Z,99929.94
2017-08-17T23:22:39.983Z,99931.39
2017-08-17T23:25:07.689Z,99937.34
2017-08-17T23:27:35.298Z,99939.36
2017-08-17T23:30:02.934Z,99931.59
2017-08-17T23:32:30.615Z,99933.77
2017-08-17T23:34:58.227Z,99928.58
2017-08-17T23:37:25.839Z,99940.63
2017-08-17T23:39:53.512Z,99944.47
2017-08-17T23:42:21.116Z,99943.08
2017-08-17T23:44:48.745Z,99943.22
2017-08-17T23:47:16.414Z,99943.52
2017-08-17T23:49:44.033Z,99947.86
2017-08-17T23:52:11.677Z,99941.20
2017-08-17T23:54:39.376Z,99937.38
2017-08-17T23:57:06.977Z,99942.58
2017-08-17T23:59:34.599Z,99947.16
